createdAt,value
2023-02-03T00:00:23.004Z,99720.48
2023-02-03T00:02:51.185Z,99720.52
2023-02-03T00:05:19.246Z,99724.74
2023-02-03T00:07:48.714Z,99723.27
2023-02-03T00:10:21.462Z,99725.60
2023-02-03T00:12:50.613Z,99726.99
2023-02-03T00:15:20.407Z,99724.94
2023-02-03T00:17:48.554Z,99723.76
2023-02-03T00:20:16.865Z,99726.40
2023-02-03T00:22:45.135Z,99726.89
2023-02-03T00:25:13.059Z,99727.48
2023-02-03T00:27:42.402Z,99728.38
2023-02-03T00:30:12.127Z,99727.40
2023-02-03T00:32:40.645Z,99729.52
2023-02-03T00:35:08.866Z,99730.27
2023-02-03T00:37:37.852Z,99730.38
2023-02-03T00:40:06.564Z,99734.10
2023-02-03T00:42:36.046Z,99731.85
2023-02-03T00:45:04.426Z,99734.64
2023-02-03T00:47:32.564Z,99735.83
2023-02-03T00:50:01.196Z,99735.80
2023-02-03T00:52:29.664Z,99732.80
2023-02-03T00:54:57.708Z,99733.56
2023-02-03T00:57:25.738Z,99738.09
2023-02-03T00:59:54.984Z,99739.02
2023-02-03T01:02:23.195Z,99739.23
2023-02-03T01:04:53.403Z,99735.92
2023-02-03T01:07:21.820Z,99735.42
2023-02-03T01:09:50.428Z,99735.53
2023-02-03T01:12:18.371Z,99737.30
2023-02-03T01:14:46.640Z,99737.48
2023-02-03T01:17:14.648Z,99739.01
2023-02-03T01:19:42.801Z,99733.73
2023-02-03T01:22:11.130Z,99734.43
2023-02-03T01:24:39.166Z,99734.48
2023-02-03T01:27:07.382Z,99731.48
2023-02-03T01:29:35.555Z,99728.35
2023-02-03T01:32:03.905Z,99730.16
2023-02-03T01:34:32.056Z,99729.17
2023-02-03T01:37:00.681Z,99728.38
2023-02-03T01:39:29.591Z,99731.70
2023-02-03T01:41:57.837Z,99731.58
2023-02-03T01:44:47.577Z,99729.38
2023-02-03T01:47:49.089Z,99730.65
2023-02-03T01:50:43.673Z,99727.55
2023-02-03T01:53:12.554Z,99726.70
2023-02-03T01:55:48.418Z,99727.51
2023-02-03T01:58:25.776Z,99726.48
2023-02-03T02:00:57.511Z,99730.44
2023-02-03T02:03:36.774Z,99730.48
2023-02-03T02:06:07.297Z,99736.36
2023-02-03T02:08:37.838Z,99736.63
2023-02-03T02:11:09.413Z,99736.02
2023-02-03T02:13:37.624Z,99734.67
2023-02-03T02:16:25.318Z,99734.30
2023-02-03T02:19:08.853Z,99731.92
2023-02-03T02:21:56.010Z,99736.54
2023-02-03T02:24:55.217Z,99733.26
2023-02-03T02:27:46.315Z,99737.31
2023-02-03T02:30:51.941Z,99739.98
2023-02-03T02:33:41.964Z,99736.92
2023-02-03T02:36:22.784Z,99740.45
2023-02-03T02:39:10.941Z,99746.80
2023-02-03T02:41:49.111Z,99744.27
2023-02-03T02:44:22.649Z,99744.04
2023-02-03T02:46:56.455Z,99745.60
2023-02-03T02:49:37.435Z,99745.31
2023-02-03T02:52:05.885Z,99744.66
2023-02-03T02:54:39.793Z,99746.00
2023-02-03T02:57:10.158Z,99746.66
2023-02-03T02:59:38.398Z,99744.44
2023-02-03T03:02:07.046Z,99746.29
2023-02-03T03:04:35.305Z,99746.52
2023-02-03T03:07:16.242Z,99741.91
2023-02-03T03:09:49.137Z,99740.92
2023-02-03T03:12:20.962Z,99743.90
2023-02-03T03:14:54.210Z,99741.66
2023-02-03T03:17:26.235Z,99737.92
2023-02-03T03:19:56.674Z,99732.41
2023-02-03T03:22:29.064Z,99730.23
2023-02-03T03:25:10.162Z,99731.96
2023-02-03T03:27:41.120Z,99740.05
2023-02-03T03:30:29.558Z,99738.35
2023-02-03T03:32:59.861Z,99738.15
2023-02-03T03:35:31.692Z,99734.38
2023-02-03T03:38:07.603Z,99738.41
2023-02-03T03:40:41.628Z,99737.92
2023-02-03T03:43:18.224Z,99735.39
2023-02-03T03:46:00.817Z,99743.18
2023-02-03T03:48:32.624Z,99739.74
2023-02-03T03:51:04.125Z,99739.67
2023-02-03T03:53:32.937Z,99742.23
2023-02-03T03:56:01.264Z,99744.85
2023-02-03T03:58:31.061Z,99748.61
2023-02-03T04:01:03.772Z,99749.02
2023-02-03T04:03:48.537Z,99749.70
2023-02-03T04:06:16.640Z,99749.57
2023-02-03T04:08:44.880Z,99748.79
2023-02-03T04:11:32.861Z,99748.11
2023-02-03T04:14:04.452Z,99750.73
2023-02-03T04:16:32.602Z,99753.02
2023-02-03T04:19:00.691Z,99756.99
2023-02-03T04:21:30.606Z,99759.46
2023-02-03T04:23:58.685Z,99762.01
2023-02-03T04:26:26.685Z,99765.47
2023-02-03T04:28:54.950Z,99765.96
2023-02-03T04:31:23.233Z,99764.53
2023-02-03T04:33:51.374Z,99765.97
2023-02-03T04:36:19.524Z,99770.52
2023-02-03T04:38:51.155Z,99773.90
2023-02-03T04:41:19.164Z,99774.65
2023-02-03T04:43:47.789Z,99767.85
2023-02-03T04:46:15.942Z,99768.09
2023-02-03T04:48:44.065Z,99771.50
2023-02-03T04:51:12.092Z,99776.58
2023-02-03T04:53:40.313Z,99778.79
2023-02-03T04:56:08.386Z,99778.14
2023-02-03T04:58:37.082Z,99777.53
2023-02-03T05:01:09.077Z,99778.18
2023-02-03T05:03:37.378Z,99785.36
2023-02-03T05:06:06.158Z,99782.87
2023-02-03T05:08:34.481Z,99783.30
2023-02-03T05:11:02.645Z,99788.30
2023-02-03T05:13:33.657Z,99785.71
2023-02-03T05:16:01.972Z,99787.96
2023-02-03T05:18:30.620Z,99789.33
2023-02-03T05:20:58.867Z,99793.06
2023-02-03T05:23:27.199Z,99795.95
2023-02-03T05:25:55.567Z,99801.64
2023-02-03T05:28:23.748Z,99811.27
2023-02-03T05:30:51.916Z,99807.48
2023-02-03T05:33:20.125Z,99808.95
2023-02-03T05:35:48.963Z,99809.36
2023-02-03T05:38:17.295Z,99807.02
2023-02-03T05:41:06.973Z,99808.25
2023-02-03T05:43:35.318Z,99801.42
2023-02-03T05:46:04.514Z,99803.73
2023-02-03T05:48:32.951Z,99799.42
2023-02-03T05:51:01.072Z,99802.27
2023-02-03T05:53:31.189Z,99804.05
2023-02-03T05:55:59.650Z,99802.95
2023-02-03T05:58:27.591Z,99809.52
2023-02-03T06:00:55.678Z,99810.88
2023-02-03T06:03:24.029Z,99811.61
2023-02-03T06:05:52.235Z,99814.13
2023-02-03T08:24:06.860Z,99844.67
2023-02-03T08:26:36.744Z,99846.29
2023-02-03T08:29:05.284Z,99851.04
2023-02-03T08:31:33.721Z,99845.54
2023-02-03T08:34:02.052Z,99844.02
2023-02-03T08:36:30.263Z,99844.89
2023-02-03T08:38:58.485Z,99842.35
2023-02-03T08:41:26.608Z,99841.90
2023-02-03T08:43:55.984Z,99844.70
2023-02-03T08:46:24.032Z,99843.83
2023-02-03T08:48:56.474Z,99844.20
2023-02-03T08:51:24.787Z,99841.88
2023-02-03T08:53:52.939Z,99837.97
2023-02-03T08:56:21.973Z,99834.56
2023-02-03T08:58:50.045Z,99829.45
2023-02-03T09:01:18.833Z,99827.61
2023-02-03T09:03:46.982Z,99824.91
2023-02-03T09:06:16.744Z,99824.22
2023-02-03T09:08:46.197Z,99819.54
2023-02-03T09:11:15.956Z,99818.75
2023-02-03T09:13:48.780Z,99817.73
2023-02-03T09:16:18.449Z,99815.92
2023-02-03T09:18:46.800Z,99813.41
2023-02-03T09:21:31.570Z,99815.06
2023-02-03T09:24:02.644Z,99813.17
2023-02-03T09:26:31.146Z,99820.06
2023-02-03T09:28:59.668Z,99815.84
2023-02-03T09:31:27.799Z,99820.80
2023-02-03T09:33:55.983Z,99821.34
2023-02-03T09:36:24.092Z,99822.81
2023-02-03T09:38:52.264Z,99819.00
2023-02-03T09:41:44.297Z,99817.63
2023-02-03T09:44:18.705Z,99823.52
2023-02-03T09:46:51.164Z,99826.76
2023-02-03T09:49:24.692Z,99823.65
2023-02-03T09:52:04.185Z,99817.41
2023-02-03T09:54:44.540Z,99815.73
2023-02-03T09:57:25.549Z,99816.79
2023-02-03T09:59:55.887Z,99812.16
2023-02-03T10:02:49.732Z,99816.05
2023-02-03T10:05:32.807Z,99813.80
2023-02-03T10:08:28.678Z,99807.95
2023-02-03T10:11:12.059Z,99813.64
2023-02-03T10:13:48.812Z,99815.12
2023-02-03T10:16:30.230Z,99814.58
2023-02-03T10:18:58.644Z,99811.99
2023-02-03T10:21:45.086Z,99808.52
2023-02-03T10:24:19.087Z,99804.23
2023-02-03T10:26:47.284Z,99802.35
2023-02-03T10:29:29.808Z,99803.15
2023-02-03T10:31:58.856Z,99803.95
2023-02-03T10:34:27.238Z,99803.95
2023-02-03T10:36:57.396Z,99803.79
2023-02-03T10:39:37.839Z,99802.15
2023-02-03T10:42:06.624Z,99804.45
2023-02-03T10:44:43.473Z,99802.95
2023-02-03T10:47:48.016Z,99801.65
2023-02-03T10:50:18.512Z,99801.58
2023-02-03T10:52:47.561Z,99796.90
2023-02-03T10:55:22.986Z,99797.31
2023-02-03T10:57:52.999Z,99797.23
2023-02-03T11:00:22.748Z,99796.27
2023-02-03T11:03:23.550Z,99788.94
2023-02-03T11:06:08.403Z,99786.44
2023-02-03T11:08:38.353Z,99783.32
2023-02-03T11:11:08.969Z,99785.70
2023-02-03T11:13:37.194Z,99781.48
2023-02-03T11:16:17.357Z,99776.69
2023-02-03T11:19:02.858Z,99778.21
2023-02-03T11:21:37.801Z,99773.55
2023-02-03T11:24:25.068Z,99773.43
2023-02-03T11:27:04.743Z,99774.71
2023-02-03T11:29:35.909Z,99768.60
2023-02-03T11:32:15.832Z,99768.52
2023-02-03T11:34:57.696Z,99766.92
2023-02-03T11:37:33.666Z,99767.88
2023-02-03T11:40:07.933Z,99768.39
2023-02-03T11:42:37.862Z,99767.34
2023-02-03T11:45:24.117Z,99765.57
2023-02-03T11:47:59.934Z,99761.23
2023-02-03T11:50:47.813Z,99761.27
2023-02-03T11:53:37.799Z,99755.79
2023-02-03T11:56:28.263Z,99753.25
2023-02-03T11:59:21.064Z,99752.97
2023-02-03T12:02:14.442Z,99750.19
2023-02-03T12:05:13.362Z,99753.52
2023-02-03T12:07:50.821Z,99752.34
2023-02-03T12:10:32.912Z,99748.94
2023-02-03T12:13:08.561Z,99754.46
2023-02-03T12:15:50.285Z,99755.90
2023-02-03T12:18:25.773Z,99755.77
2023-02-03T12:21:18.891Z,99756.22
2023-02-03T12:23:51.850Z,99755.81
2023-02-03T12:26:25.793Z,99758.09
2023-02-03T12:29:12.820Z,99757.05
2023-02-03T12:31:49.956Z,99757.75
2023-02-03T12:34:24.654Z,99761.90
2023-02-03T12:36:58.181Z,99764.07
2023-02-03T12:39:48.563Z,99765.42
2023-02-03T12:42:20.931Z,99766.01
2023-02-03T12:44:50.753Z,99770.49
2023-02-03T12:47:24.560Z,99769.13
2023-02-03T12:50:23.461Z,99766.95
2023-02-03T12:53:00.879Z,99768.88
2023-02-03T12:55:34.971Z,99770.38
2023-02-03T12:58:11.911Z,99771.36
2023-02-03T13:00:49.056Z,99772.11
2023-02-03T13:03:32.835Z,99774.21
2023-02-03T13:06:28.879Z,99772.06
2023-02-03T13:09:29.833Z,99767.83
2023-02-03T13:12:09.265Z,99770.55
2023-02-03T13:14:46.553Z,99774.23
2023-02-03T13:17:18.726Z,99778.73
2023-02-03T13:19:51.195Z,99778.06
2023-02-03T13:22:19.991Z,99775.39
2023-02-03T13:24:51.315Z,99776.30
2023-02-03T13:27:32.108Z,99778.89
2023-02-03T13:30:10.383Z,99778.16
2023-02-03T13:32:39.706Z,99775.34
2023-02-03T13:35:34.188Z,99777.09
2023-02-03T13:38:18.248Z,99773.96
2023-02-03T13:41:02.192Z,99776.27
2023-02-03T13:43:39.704Z,99776.33
2023-02-03T13:46:30.416Z,99779.23
2023-02-03T13:49:00.287Z,99782.81
2023-02-03T13:51:34.932Z,99782.77
2023-02-03T13:54:08.637Z,99786.09
2023-02-03T13:56:39.569Z,99785.50
2023-02-03T13:59:13.821Z,99788.27
2023-02-03T14:01:42.877Z,99791.15
2023-02-03T14:04:32.032Z,99786.20
2023-02-03T14:07:01.880Z,99792.72
2023-02-03T14:09:34.476Z,99792.64
2023-02-03T14:12:15.096Z,99793.81
2023-02-03T14:14:45.341Z,99792.96
2023-02-03T14:17:35.316Z,99793.23
2023-02-03T14:20:04.527Z,99794.16
2023-02-03T14:22:32.726Z,99792.91
2023-02-03T14:25:05.590Z,99796.95
2023-02-03T14:27:33.942Z,99794.88
2023-02-03T14:30:22.336Z,99797.02
2023-02-03T14:32:54.815Z,99796.09
2023-02-03T14:35:36.714Z,99792.18
2023-02-03T14:38:11.694Z,99786.98
2023-02-03T14:40:59.746Z,99786.80
2023-02-03T14:43:38.032Z,99786.15
2023-02-03T14:46:15.411Z,99785.83
2023-02-03T14:48:48.749Z,99790.58
2023-02-03T14:51:47.720Z,99791.85
2023-02-03T14:54:18.663Z,99792.73
2023-02-03T14:57:16.278Z,99794.13
2023-02-03T14:59:48.805Z,99799.91
2023-02-03T15:02:19.712Z,99797.17
2023-02-03T15:04:50.423Z,99799.06
2023-02-03T15:07:38.881Z,99797.14
2023-02-03T15:10:14.838Z,99799.05
2023-02-03T15:13:01.084Z,99800.36
2023-02-03T15:15:31.439Z,99799.22
2023-02-03T15:18:00.943Z,99803.42
2023-02-03T15:20:42.817Z,99799.23
2023-02-03T15:23:21.583Z,99801.96
2023-02-03T15:25:54.831Z,99802.79
2023-02-03T15:28:24.111Z,99803.44
2023-02-03T15:31:01.756Z,99803.83
2023-02-03T15:33:30.796Z,99802.77
2023-02-03T15:36:07.823Z,99804.62
2023-02-03T15:38:40.148Z,99806.55
2023-02-03T15:41:11.266Z,99807.15
2023-02-03T15:43:40.907Z,99812.73
2023-02-03T15:46:28.893Z,99812.65
2023-02-03T15:49:18.212Z,99811.75
2023-02-03T15:51:49.844Z,99810.98
2023-02-03T15:54:24.631Z,99810.77
2023-02-03T15:57:05.687Z,99811.89
2023-02-03T15:59:42.576Z,99811.41
2023-02-03T16:02:33.699Z,99812.64
2023-02-03T16:05:29.872Z,99813.45
2023-02-03T16:07:58.450Z,99808.56
2023-02-03T16:10:30.524Z,99811.48
2023-02-03T16:13:24.527Z,99806.17
2023-02-03T16:16:08.245Z,99812.58
2023-02-03T16:18:36.861Z,99811.86
2023-02-03T16:21:05.532Z,99813.02
2023-02-03T16:23:34.116Z,99816.60
2023-02-03T16:26:04.246Z,99821.09
2023-02-03T16:28:51.658Z,99818.21
2023-02-03T16:31:40.015Z,99819.52
2023-02-03T16:34:37.294Z,99817.29
2023-02-03T16:37:31.853Z,99816.89
2023-02-03T16:40:18.987Z,99815.86
2023-02-03T16:43:05.645Z,99813.13
2023-02-03T16:45:54.907Z,99813.68
2023-02-03T16:48:41.582Z,99816.05
2023-02-03T16:51:16.120Z,99812.00
2023-02-03T16:53:45.824Z,99813.28
2023-02-03T16:56:13.895Z,99813.77
2023-02-03T16:58:41.990Z,99804.40
2023-02-03T17:01:11.912Z,99802.60
2023-02-03T17:03:40.091Z,99800.15
2023-02-03T17:06:11.437Z,99798.37
2023-02-03T17:08:41.095Z,99796.62
2023-02-03T17:11:17.208Z,99795.83
2023-02-03T17:13:45.800Z,99796.22
2023-02-03T17:16:19.089Z,99796.96
2023-02-03T17:18:47.693Z,99801.96
2023-02-03T17:21:21.503Z,99803.15
2023-02-03T17:23:49.779Z,99800.77
2023-02-03T17:26:18.277Z,99802.92
2023-02-03T17:28:46.442Z,99804.67
2023-02-03T17:31:16.232Z,99807.54
2023-02-03T17:33:44.787Z,99804.18
2023-02-03T17:36:15.043Z,99801.80
2023-02-03T17:55:21.107Z,99802.99
2023-02-03T17:57:49.801Z,99802.67
2023-02-03T18:00:18.678Z,99807.76
2023-02-03T18:02:50.936Z,99804.36
2023-02-03T18:05:19.315Z,99799.36
2023-02-03T18:10:17.022Z,99802.37
2023-02-03T18:12:46.401Z,99802.17
2023-02-03T18:15:14.423Z,99804.71
2023-02-03T18:17:43.259Z,99802.63
2023-02-03T18:20:12.218Z,99805.27
2023-02-03T18:22:40.523Z,99805.61
2023-02-03T18:25:09.801Z,99804.73
2023-02-03T18:27:39.889Z,99805.10
2023-02-03T18:30:11.321Z,99800.34
2023-02-03T18:32:39.399Z,99799.48
2023-02-03T18:35:13.153Z,99798.77
2023-02-03T18:37:42.313Z,99795.97
2023-02-03T18:40:11.974Z,99794.82
2023-02-03T18:42:41.276Z,99795.58
2023-02-03T18:45:11.007Z,99793.85
2023-02-03T18:47:39.364Z,99793.13
2023-02-03T18:50:08.420Z,99786.98
2023-02-03T18:52:38.080Z,99784.05
2023-02-03T18:55:06.788Z,99777.91
2023-02-03T18:57:36.045Z,99774.41
2023-02-03T19:00:05.705Z,99774.84
2023-02-03T19:02:36.049Z,99781.00
2023-02-03T19:05:05.530Z,99781.90
2023-02-03T19:07:34.114Z,99785.67
2023-02-03T19:10:02.245Z,99783.52
2023-02-03T19:12:31.101Z,99778.89
2023-02-03T19:14:59.357Z,99781.66
2023-02-03T19:17:27.893Z,99780.81
2023-02-03T19:19:57.002Z,99780.62
2023-02-03T19:22:25.387Z,99781.22
2023-02-03T19:24:53.656Z,99784.00
2023-02-03T19:27:23.062Z,99784.31
2023-02-03T19:29:51.197Z,99785.58
2023-02-03T19:32:19.388Z,99781.08
2023-02-03T19:34:47.626Z,99781.02
2023-02-03T19:37:16.175Z,99777.83
2023-02-03T19:39:47.919Z,99776.46
2023-02-03T19:42:16.921Z,99779.82
2023-02-03T19:44:45.195Z,99779.19
2023-02-03T19:47:13.555Z,99777.36
2023-02-03T19:49:41.609Z,99777.05
2023-02-03T19:52:10.736Z,99778.18
2023-02-03T19:54:39.203Z,99772.56
2023-02-03T19:57:08.145Z,99772.39
2023-02-03T19:59:36.296Z,99777.08
2023-02-03T20:02:13.770Z,99775.20
2023-02-03T20:04:44.291Z,99777.90
2023-02-03T20:07:15.118Z,99776.78
2023-02-03T20:09:43.425Z,99773.90
2023-02-03T20:12:11.757Z,99772.69
2023-02-03T20:14:40.894Z,99771.58
2023-02-03T20:17:09.994Z,99766.54
2023-02-03T20:19:38.572Z,99768.68
2023-02-03T20:22:06.959Z,99766.92
2023-02-03T20:24:35.321Z,99769.45
2023-02-03T20:27:03.600Z,99766.66
2023-02-03T20:29:33.618Z,99768.02
2023-02-03T20:32:05.252Z,99765.80
2023-02-03T20:34:33.578Z,99766.93
2023-02-03T20:37:02.033Z,99768.58
2023-02-03T20:39:30.616Z,99770.48
2023-02-03T20:41:59.293Z,99769.73
2023-02-03T20:44:27.988Z,99768.38
2023-02-03T20:46:56.638Z,99771.04
2023-02-03T20:49:26.276Z,99773.29
2023-02-03T20:51:54.451Z,99771.57
2023-02-03T20:54:22.680Z,99771.98
2023-02-03T20:56:51.108Z,99776.67
2023-02-03T20:59:19.596Z,99777.66
2023-02-03T21:01:48.042Z,99777.63
2023-02-03T21:04:36.165Z,99779.15
2023-02-03T21:07:14.070Z,99783.16
2023-02-03T21:09:43.070Z,99785.46
2023-02-03T21:12:14.260Z,99786.52
2023-02-03T21:14:43.658Z,99792.63
2023-02-03T21:17:18.901Z,99789.80
2023-02-03T21:19:47.184Z,99786.90
2023-02-03T21:22:22.179Z,99794.69
2023-02-03T21:24:55.025Z,99799.20
2023-02-03T21:27:25.114Z,99798.23
2023-02-03T21:29:56.679Z,99800.58
2023-02-03T21:32:26.973Z,99803.89
2023-02-03T21:34:55.351Z,99804.71
2023-02-03T21:37:23.369Z,99803.43
2023-02-03T21:39:51.621Z,99804.21
2023-02-03T21:42:42.313Z,99807.14
2023-02-03T21:45:16.951Z,99804.80
2023-02-03T21:47:46.719Z,99802.08
2023-02-03T21:50:34.504Z,99803.28
2023-02-03T21:53:09.108Z,99799.73
2023-02-03T21:55:42.731Z,99795.02
2023-02-03T21:58:32.244Z,99796.69
2023-02-03T22:01:01.139Z,99797.42
2023-02-03T22:03:43.480Z,99798.38
2023-02-03T22:06:11.505Z,99793.98
2023-02-03T22:08:50.481Z,99794.66
2023-02-03T22:11:18.974Z,99795.34
2023-02-03T22:13:47.770Z,99797.09
2023-02-03T22:16:17.331Z,99795.21
2023-02-03T22:18:46.261Z,99794.36
2023-02-03T22:21:14.543Z,99793.31
2023-02-03T22:23:42.810Z,99791.92
2023-02-03T22:26:11.716Z,99794.73
2023-02-03T22:28:39.887Z,99792.45
2023-02-03T22:31:08.694Z,99789.21
2023-02-03T22:33:37.259Z,99788.39
2023-02-03T22:36:10.209Z,99787.98
2023-02-03T22:38:39.033Z,99785.74
2023-02-03T22:41:09.522Z,99783.17
2023-02-03T22:43:37.609Z,99781.08
2023-02-03T22:46:06.954Z,99780.66
2023-02-03T22:48:35.028Z,99778.89
2023-02-03T22:51:03.684Z,99783.27
2023-02-03T22:53:32.870Z,99782.92
2023-02-03T22:56:01.139Z,99782.14
2023-02-03T22:58:29.618Z,99783.52
2023-02-03T23:00:57.891Z,99780.64
2023-02-03T23:03:26.136Z,99776.10
2023-02-03T23:05:56.468Z,99772.70
2023-02-03T23:08:25.030Z,99767.71
2023-02-03T23:10:53.263Z,99765.66
2023-02-03T23:13:22.233Z,99770.25
2023-02-03T23:15:50.924Z,99769.61
2023-02-03T23:18:19.171Z,99771.55
2023-02-03T23:20:47.788Z,99769.33
2023-02-03T23:23:16.291Z,99769.77
2023-02-03T23:25:44.381Z,99765.73
2023-02-03T23:28:12.583Z,99765.64
2023-02-03T23:30:41.745Z,99770.45
2023-02-03T23:33:09.955Z,99772.50
2023-02-03T23:35:49.382Z,99776.27
2023-02-03T23:38:17.531Z,99775.51
2023-02-03T23:40:45.629Z,99778.37
2023-02-03T23:43:14.635Z,99781.07
2023-02-03T23:45:42.741Z,99776.59
2023-02-03T23:48:11.095Z,99778.69
2023-02-03T23:50:40.196Z,99777.74
2023-02-03T23:53:09.513Z,99773.33
2023-02-03T23:55:37.713Z,99771.31
2023-02-03T23:58:05.854Z,99768.61
